createdAt,value
2019-03-22T00:03:04.577Z,10.20
2019-03-22T00:05:33.272Z,10.10
2019-03-22T00:08:01.863Z,10.10
2019-03-22T00:10:30.508Z,10.00
2019-03-22T00:12:59.164Z,10.00
2019-03-22T00:15:27.806Z,9.90
2019-03-22T00:17:56.405Z,9.80
2019-03-22T00:20:25.036Z,9.90
2019-03-22T00:22:53.716Z,9.80
2019-03-22T00:25:22.367Z,9.80
2019-03-22T00:27:51.006Z,9.80
2019-03-22T00:30:19.590Z,9.90
2019-03-22T00:32:48.153Z,10.00
2019-03-22T00:35:16.843Z,10.00
2019-03-22T00:37:45.495Z,10.00
2019-03-22T00:40:15.730Z,9.80
2019-03-22T00:42:44.293Z,9.80
2019-03-22T00:45:12.995Z,9.70
2019-03-22T00:47:41.661Z,9.60
2019-03-22T00:50:12.103Z,9.60
2019-03-22T00:52:40.775Z,9.60
2019-03-22T00:55:09.502Z,9.80
2019-03-22T00:57:38.160Z,9.90
2019-03-22T01:00:14.132Z,9.80
2019-03-22T01:02:42.802Z,9.80
2019-03-22T01:05:11.446Z,9.70
2019-03-22T01:07:40.038Z,9.60
2019-03-22T01:10:10.788Z,9.50
2019-03-22T01:12:39.271Z,9.50
2019-03-22T01:15:10.025Z,9.50
2019-03-22T01:17:38.679Z,9.60
2019-03-22T01:20:08.949Z,9.70
2019-03-22T01:22:37.517Z,9.70
2019-03-22T01:25:09.917Z,9.60
2019-03-22T01:27:40.637Z,9.50
2019-03-22T01:30:14.646Z,9.50
2019-03-22T01:32:43.213Z,9.40
2019-03-22T01:35:11.919Z,9.40
2019-03-22T01:37:40.630Z,9.30
2019-03-22T01:40:12.764Z,9.40
2019-03-22T01:42:40.668Z,9.30
2019-03-22T01:45:12.088Z,9.40
2019-03-22T01:47:40.643Z,9.30
2019-03-22T01:50:17.106Z,9.30
2019-03-22T01:52:45.764Z,9.30
2019-03-22T01:55:14.323Z,9.30
2019-03-22T01:57:52.395Z,9.30
2019-03-22T02:00:15.223Z,9.30
2019-03-22T02:02:43.776Z,9.30
2019-03-22T02:05:12.398Z,9.40
2019-03-22T02:07:40.951Z,9.50
2019-03-22T02:10:11.225Z,9.40
2019-03-22T02:12:39.811Z,9.20
2019-03-22T02:15:13.218Z,9.20
2019-03-22T02:17:42.172Z,9.10
2019-03-22T02:20:13.058Z,9.10
2019-03-22T02:22:41.616Z,9.20
2019-03-22T02:25:10.189Z,9.10
2019-03-22T02:27:38.888Z,9.00
2019-03-22T02:30:13.295Z,8.90
2019-03-22T02:32:41.982Z,8.80
2019-03-22T02:35:21.419Z,8.80
2019-03-22T02:37:40.956Z,8.80
2019-03-22T02:40:11.091Z,8.80
2019-03-22T02:42:39.623Z,9.00
2019-03-22T02:45:10.619Z,9.00
2019-03-22T02:47:39.227Z,9.00
2019-03-22T02:50:17.742Z,8.90
2019-03-22T02:52:40.360Z,8.80
2019-03-22T02:55:09.944Z,8.90
2019-03-22T02:57:38.502Z,8.90
2019-03-22T03:00:10.477Z,8.90
2019-03-22T03:02:39.108Z,8.80
2019-03-22T03:05:09.254Z,8.70
2019-03-22T03:07:37.870Z,8.70
2019-03-22T03:10:16.928Z,8.60
2019-03-22T03:12:45.595Z,8.60
2019-03-22T03:15:18.258Z,8.60
2019-03-22T03:17:46.936Z,8.50
2019-03-22T03:20:16.785Z,8.60
2019-03-22T03:22:45.465Z,8.40
2019-03-22T03:25:14.210Z,8.20
2019-03-22T03:27:42.884Z,8.10
2019-03-22T03:30:16.690Z,8.00
2019-03-22T03:32:45.344Z,7.80
2019-03-22T03:35:14.006Z,7.80
2019-03-22T03:37:42.568Z,7.70
2019-03-22T03:40:13.044Z,7.80
2019-03-22T03:42:41.626Z,7.80
2019-03-22T03:45:19.160Z,7.80
2019-03-22T03:47:47.774Z,7.90
2019-03-22T03:50:16.421Z,7.90
2019-03-22T03:52:45.091Z,7.90
2019-03-22T03:55:13.592Z,7.90
2019-03-22T03:57:43.060Z,7.90
2019-03-22T04:00:11.700Z,7.90
2019-03-22T04:02:40.234Z,7.90
2019-03-22T04:05:08.857Z,8.00
2019-03-22T04:07:37.475Z,8.00
2019-03-22T04:10:07.690Z,8.00
2019-03-22T04:12:36.255Z,8.10
2019-03-22T04:15:06.489Z,8.10
2019-03-22T04:17:35.134Z,8.00
2019-03-22T04:20:05.215Z,8.00
2019-03-22T04:22:36.350Z,8.00
2019-03-22T04:25:05.920Z,7.90
2019-03-22T04:27:34.460Z,7.80
2019-03-22T04:30:03.083Z,7.90
2019-03-22T04:32:31.684Z,8.00
2019-03-22T04:35:00.414Z,7.90
2019-03-22T04:37:29.431Z,7.90
2019-03-22T04:39:58.094Z,7.80
2019-03-22T04:42:26.707Z,7.90
2019-03-22T04:44:55.347Z,7.90
2019-03-22T04:47:24.031Z,7.90
2019-03-22T04:49:52.513Z,7.80
2019-03-22T04:52:21.211Z,7.80
2019-03-22T04:54:49.882Z,7.70
2019-03-22T04:57:18.448Z,7.80
2019-03-22T04:59:47.107Z,7.80
2019-03-22T05:02:15.797Z,7.80
2019-03-22T05:04:44.360Z,7.70
2019-03-22T05:07:12.921Z,7.80
2019-03-22T05:09:41.584Z,7.80
2019-03-22T05:12:10.640Z,7.80
2019-03-22T05:14:39.237Z,7.80
2019-03-22T05:17:07.828Z,7.70
2019-03-22T05:19:37.289Z,7.60
2019-03-22T05:22:06.071Z,7.60
2019-03-22T05:24:34.566Z,7.50
2019-03-22T05:27:03.244Z,7.60
2019-03-22T05:29:31.950Z,7.60
2019-03-22T05:32:08.168Z,7.70
2019-03-22T05:34:36.782Z,7.80
2019-03-22T05:37:05.410Z,7.90
2019-03-22T05:39:33.974Z,8.00
2019-03-22T05:42:02.676Z,8.40
2019-03-22T05:44:31.303Z,8.90
2019-03-22T05:46:59.951Z,9.50
2019-03-22T05:49:28.630Z,10.20
2019-03-22T05:51:57.205Z,11.00
2019-03-22T05:54:25.899Z,11.50
2019-03-22T05:56:54.469Z,12.40
2019-03-22T05:59:23.152Z,13.00
2019-03-22T06:01:51.802Z,13.50
2019-03-22T06:04:20.475Z,13.60
2019-03-22T06:06:49.045Z,14.10
2019-03-22T06:09:17.721Z,14.30
2019-03-22T06:11:46.397Z,13.40
2019-03-22T06:14:14.967Z,13.30
2019-03-22T06:16:43.660Z,13.10
2019-03-22T06:19:12.316Z,13.20
2019-03-22T06:21:41.005Z,14.30
2019-03-22T06:24:09.629Z,14.90
2019-03-22T06:26:38.307Z,15.70
2019-03-22T06:29:06.866Z,16.70
2019-03-22T06:31:35.478Z,17.70
2019-03-22T06:34:04.131Z,17.70
2019-03-22T06:36:32.818Z,18.80
2019-03-22T06:39:01.555Z,18.80
2019-03-22T06:41:30.140Z,19.40
2019-03-22T06:43:58.807Z,19.30
2019-03-22T06:46:27.371Z,19.70
2019-03-22T06:48:56.035Z,21.10
2019-03-22T06:51:24.610Z,22.20
2019-03-22T06:53:53.286Z,23.00
2019-03-22T06:56:21.947Z,23.40
2019-03-22T06:58:50.609Z,22.70
2019-03-22T07:01:19.267Z,23.10
2019-03-22T07:03:47.953Z,23.70
2019-03-22T07:06:16.522Z,24.50
2019-03-22T07:08:45.210Z,23.50
2019-03-22T07:11:13.897Z,22.50
2019-03-22T07:13:42.462Z,22.60
2019-03-22T07:16:11.134Z,22.60
2019-03-22T07:18:39.776Z,22.90
2019-03-22T07:21:08.371Z,22.70
2019-03-22T07:23:37.014Z,23.10
2019-03-22T07:26:06.094Z,23.50
2019-03-22T07:28:34.600Z,23.30
2019-03-22T07:31:03.278Z,24.10
2019-03-22T07:33:31.838Z,25.50
2019-03-22T07:36:00.394Z,25.30
2019-03-22T07:38:28.890Z,25.80
2019-03-22T07:40:57.582Z,26.90
2019-03-22T07:43:26.067Z,26.70
2019-03-22T07:45:54.718Z,26.70
2019-03-22T07:48:23.263Z,27.80
2019-03-22T07:50:51.909Z,27.10
2019-03-22T07:53:20.533Z,28.10
2019-03-22T07:55:49.188Z,27.00
2019-03-22T07:58:17.739Z,27.00
2019-03-22T08:00:46.373Z,27.00
2019-03-22T08:03:14.972Z,26.80
2019-03-22T08:05:51.051Z,27.10
2019-03-22T08:08:13.830Z,26.60
2019-03-22T08:10:42.497Z,26.70
2019-03-22T08:13:11.136Z,27.00
2019-03-22T08:15:39.819Z,27.10
2019-03-22T08:18:08.467Z,27.50
2019-03-22T08:20:38.756Z,27.50
2019-03-22T08:23:10.423Z,28.10
2019-03-22T08:25:38.294Z,28.60
2019-03-22T08:28:06.869Z,28.50
2019-03-22T08:30:42.899Z,28.60
2019-03-22T08:33:05.814Z,28.50
2019-03-22T08:35:34.493Z,28.80
2019-03-22T08:38:03.040Z,29.20
2019-03-22T08:40:31.674Z,29.60
2019-03-22T08:43:00.273Z,29.90
2019-03-22T08:45:28.863Z,29.80
2019-03-22T08:47:57.485Z,29.40
2019-03-22T08:50:26.033Z,31.00
2019-03-22T08:52:54.591Z,30.80
2019-03-22T08:55:23.188Z,30.30
2019-03-22T08:57:51.816Z,30.20
2019-03-22T09:00:20.395Z,30.30
2019-03-22T09:02:49.837Z,30.30
2019-03-22T09:05:18.743Z,30.30
2019-03-22T09:07:47.427Z,30.70
2019-03-22T09:10:16.094Z,30.70
2019-03-22T09:12:44.778Z,32.00
2019-03-22T09:15:13.437Z,32.20
2019-03-22T09:17:42.207Z,31.30
2019-03-22T09:20:11.221Z,31.30
2019-03-22T09:22:39.879Z,31.50
2019-03-22T09:25:08.510Z,30.80
2019-03-22T09:27:37.195Z,31.20
2019-03-22T09:30:08.655Z,31.50
2019-03-22T09:32:37.217Z,31.70
2019-03-22T09:35:06.618Z,32.00
2019-03-22T09:37:35.245Z,31.30
2019-03-22T09:40:08.312Z,32.20
2019-03-22T09:42:36.396Z,32.70
2019-03-22T09:45:06.774Z,32.00
2019-03-22T09:47:35.620Z,31.70
2019-03-22T09:50:07.131Z,31.60
2019-03-22T09:52:35.709Z,31.90
2019-03-22T09:55:13.311Z,31.80
2019-03-22T09:57:35.181Z,31.50
2019-03-22T10:00:04.854Z,31.90
2019-03-22T10:02:33.512Z,31.90
2019-03-22T10:05:02.161Z,31.90
2019-03-22T10:07:30.908Z,31.70
2019-03-22T10:09:59.493Z,32.10
2019-03-22T10:12:28.166Z,32.20
2019-03-22T10:14:56.813Z,32.10
2019-03-22T10:17:25.500Z,31.80
2019-03-22T10:19:54.045Z,31.70
2019-03-22T10:22:22.730Z,32.00
2019-03-22T10:24:51.378Z,32.60
2019-03-22T10:27:19.992Z,32.20
2019-03-22T10:29:48.655Z,32.20
2019-03-22T10:32:17.315Z,32.80
2019-03-22T10:34:45.990Z,32.90
2019-03-22T10:37:14.619Z,32.90
2019-03-22T10:39:43.307Z,32.60
2019-03-22T10:42:11.978Z,32.80
2019-03-22T10:44:40.644Z,33.40
2019-03-22T10:47:09.293Z,32.60
2019-03-22T10:49:37.912Z,32.30
2019-03-22T10:52:06.557Z,32.30
2019-03-22T10:54:35.238Z,32.70
2019-03-22T10:57:03.919Z,32.90
2019-03-22T10:59:32.503Z,33.50
2019-03-22T11:02:03.601Z,32.90
2019-03-22T11:04:31.388Z,33.00
2019-03-22T11:07:00.094Z,33.30
2019-03-22T11:09:28.755Z,32.90
2019-03-22T11:11:57.443Z,32.40
2019-03-22T11:14:26.079Z,32.90
2019-03-22T11:16:54.694Z,32.20
2019-03-22T11:19:23.266Z,32.10
2019-03-22T11:21:51.775Z,32.20
2019-03-22T11:24:20.436Z,32.60
2019-03-22T11:26:49.098Z,31.80
2019-03-22T11:29:17.764Z,32.60
2019-03-22T11:31:46.417Z,32.70
2019-03-22T11:34:15.097Z,32.40
2019-03-22T11:36:43.734Z,31.60
2019-03-22T11:39:15.813Z,31.20
2019-03-22T11:41:42.734Z,31.20
2019-03-22T11:44:11.316Z,31.60
2019-03-22T11:46:39.998Z,31.30
2019-03-22T11:49:08.645Z,30.70
2019-03-22T11:51:37.325Z,30.30
2019-03-22T11:54:05.889Z,30.40
2019-03-22T11:56:34.509Z,30.40
2019-03-22T11:59:03.091Z,30.00
2019-03-22T12:01:31.767Z,29.10
2019-03-22T12:04:00.360Z,28.90
2019-03-22T12:06:29.021Z,28.30
2019-03-22T12:08:57.615Z,27.80
2019-03-22T12:11:26.248Z,27.40
2019-03-22T12:13:54.937Z,26.80
2019-03-22T12:16:23.494Z,25.90
2019-03-22T12:18:52.179Z,25.90
2019-03-22T12:21:20.756Z,26.00
2019-03-22T12:23:49.354Z,25.90
2019-03-22T12:26:18.002Z,25.60
2019-03-22T12:28:46.606Z,25.30
2019-03-22T12:31:15.256Z,25.10
2019-03-22T12:33:43.941Z,24.60
2019-03-22T12:36:12.617Z,24.00
2019-03-22T12:38:41.198Z,23.80
2019-03-22T12:41:09.824Z,23.50
2019-03-22T12:43:38.399Z,23.70
2019-03-22T12:46:07.082Z,24.00
2019-03-22T12:48:35.664Z,24.50
2019-03-22T12:51:04.337Z,24.60
2019-03-22T12:53:32.976Z,24.90
2019-03-22T12:56:01.593Z,24.80
2019-03-22T12:58:30.233Z,24.80
2019-03-22T13:00:58.904Z,24.60
2019-03-22T13:03:27.594Z,24.80
2019-03-22T13:05:56.190Z,24.80
2019-03-22T13:08:24.841Z,25.00
2019-03-22T13:10:53.407Z,24.90
2019-03-22T13:13:22.099Z,24.80
2019-03-22T13:15:50.680Z,24.70
2019-03-22T13:18:19.276Z,24.10
2019-03-22T13:20:47.935Z,24.00
2019-03-22T13:23:16.619Z,24.30
2019-03-22T13:25:45.177Z,24.20
2019-03-22T13:28:13.868Z,24.30
2019-03-22T13:30:42.535Z,24.20
2019-03-22T13:33:11.184Z,24.10
2019-03-22T13:35:39.791Z,24.30
2019-03-22T13:38:08.307Z,23.90
2019-03-22T13:40:37.259Z,23.70
2019-03-22T13:43:05.909Z,23.70
2019-03-22T13:45:34.582Z,23.50
2019-03-22T13:48:03.221Z,23.30
2019-03-22T13:50:31.901Z,23.20
2019-03-22T13:53:00.535Z,23.20
2019-03-22T13:55:29.227Z,22.90
2019-03-22T13:57:57.861Z,22.80
2019-03-22T14:00:26.537Z,22.80
2019-03-22T14:03:03.106Z,23.10
2019-03-22T14:05:25.502Z,23.30
2019-03-22T14:07:53.933Z,23.50
2019-03-22T14:10:31.030Z,23.90
2019-03-22T14:13:01.199Z,23.90
2019-03-22T14:15:29.859Z,24.00
2019-03-22T14:17:58.939Z,23.60
2019-03-22T14:20:27.571Z,23.70
2019-03-22T14:22:56.260Z,24.00
2019-03-22T14:25:24.895Z,24.10
2019-03-22T14:27:53.988Z,24.10
2019-03-22T14:30:22.569Z,23.90
2019-03-22T14:32:51.190Z,23.80
2019-03-22T14:35:19.819Z,23.70
2019-03-22T14:37:48.497Z,23.70
2019-03-22T14:40:17.103Z,23.50
2019-03-22T14:42:45.735Z,23.50
2019-03-22T14:45:14.364Z,23.40
2019-03-22T14:47:42.997Z,23.30
2019-03-22T14:50:12.180Z,23.30
2019-03-22T14:52:40.763Z,23.40
2019-03-22T14:55:09.430Z,23.40
2019-03-22T14:57:48.390Z,23.50
2019-03-22T15:00:10.828Z,23.50
2019-03-22T15:02:39.508Z,23.50
2019-03-22T15:05:08.143Z,23.50
2019-03-22T15:07:36.795Z,23.40
2019-03-22T15:10:07.876Z,23.30
2019-03-22T15:12:36.542Z,23.20
2019-03-22T15:15:11.541Z,23.10
2019-03-22T15:17:44.618Z,22.80
2019-03-22T15:20:30.057Z,22.80
2019-03-22T15:23:16.408Z,22.60
2019-03-22T15:26:02.752Z,22.80
2019-03-22T15:28:32.970Z,22.60
2019-03-22T15:31:19.355Z,22.40
2019-03-22T15:36:26.501Z,22.30
2019-03-22T15:38:56.824Z,22.30
2019-03-22T15:41:25.612Z,22.40
2019-03-22T15:43:54.313Z,22.40
2019-03-22T15:46:22.958Z,22.20
2019-03-22T15:48:51.515Z,22.00
2019-03-22T15:51:20.096Z,21.80
2019-03-22T15:53:48.705Z,21.90
2019-03-22T15:56:17.345Z,21.80
2019-03-22T15:58:46.018Z,21.70
2019-03-22T16:01:14.672Z,21.60
2019-03-22T16:03:44.475Z,21.50
2019-03-22T16:06:13.324Z,21.50
2019-03-22T16:08:41.864Z,21.50
2019-03-22T16:11:10.460Z,21.60
2019-03-22T16:13:39.164Z,21.60
2019-03-22T16:16:07.821Z,21.50
2019-03-22T16:18:36.428Z,21.50
2019-03-22T16:21:05.030Z,21.50
2019-03-22T16:23:33.615Z,21.40
2019-03-22T16:26:02.304Z,21.50
2019-03-22T16:28:30.947Z,21.50
2019-03-22T16:30:59.578Z,21.50
2019-03-22T16:33:28.214Z,21.40
2019-03-22T16:35:56.832Z,21.30
2019-03-22T16:38:25.519Z,21.20
2019-03-22T16:40:54.163Z,21.10
2019-03-22T16:43:22.846Z,20.90
2019-03-22T16:45:51.518Z,20.70
2019-03-22T16:48:20.109Z,20.50
2019-03-22T16:50:48.766Z,20.40
2019-03-22T16:53:17.442Z,20.40
2019-03-22T16:55:46.013Z,20.40
2019-03-22T16:58:14.695Z,20.30
2019-03-22T17:00:43.262Z,20.30
2019-03-22T17:03:11.948Z,20.20
2019-03-22T17:05:40.527Z,20.20
2019-03-22T17:08:09.116Z,20.10
2019-03-22T17:10:37.712Z,20.00
2019-03-22T17:13:06.398Z,19.90
2019-03-22T17:15:35.053Z,19.60
2019-03-22T17:18:04.070Z,19.40
2019-03-22T17:20:32.917Z,19.30
2019-03-22T17:23:02.774Z,19.00
2019-03-22T17:25:31.611Z,18.90
2019-03-22T17:28:00.463Z,18.80
2019-03-22T17:30:29.356Z,18.80
2019-03-22T17:32:58.184Z,18.70
2019-03-22T17:35:27.055Z,18.70
2019-03-22T17:37:55.918Z,18.60
2019-03-22T17:40:24.755Z,18.70
2019-03-22T17:42:53.583Z,18.70
2019-03-22T17:45:22.463Z,18.80
2019-03-22T17:47:51.283Z,18.80
2019-03-22T17:50:20.249Z,18.70
2019-03-22T17:52:49.031Z,18.60
2019-03-22T17:55:17.865Z,18.40
2019-03-22T17:57:46.812Z,18.30
2019-03-22T18:00:25.676Z,18.10
2019-03-22T18:02:54.641Z,18.00
2019-03-22T18:05:23.442Z,17.80
2019-03-22T18:07:52.312Z,17.70
2019-03-22T18:10:21.127Z,17.60
2019-03-22T18:12:49.925Z,17.50
2019-03-22T18:15:18.736Z,17.40
2019-03-22T18:17:47.602Z,17.30
2019-03-22T18:20:17.033Z,17.20
2019-03-22T18:22:45.897Z,17.20
2019-03-22T18:25:15.786Z,17.10
2019-03-22T18:27:45.012Z,17.10
2019-03-22T18:30:15.336Z,17.10
2019-03-22T18:32:44.244Z,17.00
2019-03-22T18:35:13.153Z,16.90
2019-03-22T18:37:42.168Z,16.90
2019-03-22T18:40:15.109Z,16.90
2019-03-22T18:42:43.645Z,16.80
2019-03-22T18:45:14.809Z,16.80
2019-03-22T18:47:43.893Z,16.70
2019-03-22T18:50:13.757Z,16.60
2019-03-22T18:52:42.560Z,16.50
2019-03-22T18:55:11.615Z,16.40
2019-03-22T18:57:40.445Z,16.30
2019-03-22T19:00:12.338Z,16.20
2019-03-22T19:02:41.092Z,16.20
2019-03-22T19:05:09.959Z,16.20
2019-03-22T19:07:38.796Z,16.00
2019-03-22T19:10:12.428Z,16.00
2019-03-22T19:12:41.263Z,16.00
2019-03-22T19:15:12.233Z,15.90
2019-03-22T19:17:41.067Z,15.80
2019-03-22T19:20:14.550Z,15.80
2019-03-22T19:22:43.406Z,15.80
2019-03-22T19:25:14.390Z,15.70
2019-03-22T19:27:43.131Z,15.70
2019-03-22T19:30:16.962Z,15.70
2019-03-22T19:32:45.832Z,15.60
2019-03-22T19:35:15.857Z,15.40
2019-03-22T19:37:44.705Z,15.50
2019-03-22T19:40:17.199Z,15.40
2019-03-22T19:42:46.078Z,15.30
2019-03-22T19:45:16.849Z,15.20
2019-03-22T19:47:45.960Z,15.20
2019-03-22T19:50:16.282Z,15.10
2019-03-22T19:52:45.155Z,15.00
2019-03-22T19:55:14.045Z,14.90
2019-03-22T19:57:42.896Z,14.90
2019-03-22T20:00:20.053Z,14.80
2019-03-22T20:02:49.349Z,14.80
2019-03-22T20:05:29.507Z,14.70
2019-03-22T20:07:58.381Z,14.70
2019-03-22T20:10:27.193Z,14.70
2019-03-22T20:12:56.167Z,14.60
2019-03-22T20:15:25.039Z,14.60
2019-03-22T20:17:53.795Z,14.60
2019-03-22T20:20:22.650Z,14.50
2019-03-22T20:22:51.471Z,14.60
2019-03-22T20:25:20.328Z,14.60
2019-03-22T20:27:49.204Z,14.70
2019-03-22T20:30:20.171Z,14.60
2019-03-22T20:32:48.987Z,14.50
2019-03-22T20:35:17.804Z,14.50
2019-03-22T20:37:46.603Z,14.50
2019-03-22T20:40:18.232Z,14.40
2019-03-22T20:42:47.177Z,14.50
2019-03-22T20:45:24.072Z,14.50
2019-03-22T20:47:46.601Z,14.40
2019-03-22T20:50:15.604Z,14.40
2019-03-22T20:52:44.466Z,14.30
2019-03-22T20:55:13.440Z,14.20
2019-03-22T20:57:42.301Z,14.20
2019-03-22T21:00:16.059Z,14.10
2019-03-22T21:02:44.894Z,14.10
2019-03-22T21:05:13.851Z,14.00
2019-03-22T21:07:42.682Z,13.90
2019-03-22T21:10:12.691Z,13.90
2019-03-22T21:12:41.521Z,13.90
2019-03-22T21:15:12.145Z,13.90
2019-03-22T21:17:40.982Z,14.00
2019-03-22T21:20:11.345Z,14.00
2019-03-22T21:22:40.169Z,14.00
2019-03-22T21:25:10.546Z,14.00
2019-03-22T21:27:40.051Z,13.90
2019-03-22T21:30:14.396Z,13.90
2019-03-22T21:32:45.479Z,13.90
2019-03-22T21:35:21.997Z,13.70
2019-03-22T21:37:44.201Z,13.70
2019-03-22T21:40:13.044Z,13.70
2019-03-22T21:42:41.861Z,13.60
2019-03-22T21:45:11.488Z,13.70
2019-03-22T21:47:40.303Z,13.80
2019-03-22T21:50:10.414Z,13.80
2019-03-22T21:52:39.193Z,13.80
2019-03-22T21:55:10.973Z,13.90
2019-03-22T21:57:39.815Z,13.70
2019-03-22T22:00:11.227Z,13.70
2019-03-22T22:02:40.059Z,13.50
2019-03-22T22:05:09.885Z,13.40
2019-03-22T22:07:38.790Z,13.30
2019-03-22T22:10:08.259Z,13.40
2019-03-22T22:12:37.119Z,13.30
2019-03-22T22:15:09.435Z,13.30
2019-03-22T22:17:39.446Z,13.30
2019-03-22T22:20:08.370Z,13.20
2019-03-22T22:22:37.216Z,13.20
2019-03-22T22:25:07.563Z,13.20
2019-03-22T22:27:36.425Z,13.30
2019-03-22T22:30:12.587Z,13.20
2019-03-22T22:32:41.451Z,13.30
2019-03-22T22:35:10.287Z,13.30
2019-03-22T22:37:39.127Z,13.30
2019-03-22T22:40:09.785Z,13.30
2019-03-22T22:42:38.656Z,13.30
2019-03-22T22:45:08.773Z,13.20
2019-03-22T22:47:37.597Z,13.20
2019-03-22T22:50:08.273Z,13.20
2019-03-22T22:52:37.103Z,13.10
2019-03-22T22:55:06.165Z,13.00
2019-03-22T22:57:34.980Z,12.90
2019-03-22T23:00:08.692Z,13.00
2019-03-22T23:02:37.527Z,13.00
2019-03-22T23:05:06.979Z,13.00
2019-03-22T23:07:35.852Z,12.90
2019-03-22T23:10:06.578Z,12.80
2019-03-22T23:12:35.940Z,12.70
2019-03-22T23:15:09.241Z,12.60
2019-03-22T23:17:38.140Z,12.70
2019-03-22T23:20:08.759Z,12.80
2019-03-22T23:22:37.626Z,12.80
2019-03-22T23:25:07.166Z,12.70
2019-03-22T23:27:36.945Z,12.70
2019-03-22T23:30:07.780Z,12.80
2019-03-22T23:32:36.637Z,12.70
2019-03-22T23:35:06.951Z,12.80
2019-03-22T23:37:35.809Z,12.80
2019-03-22T23:40:06.559Z,12.70
2019-03-22T23:42:35.415Z,12.60
2019-03-22T23:45:06.637Z,12.70
2019-03-22T23:47:35.502Z,12.60
2019-03-22T23:50:07.063Z,12.60
2019-03-22T23:52:35.991Z,12.50
2019-03-22T23:55:06.336Z,12.30
2019-03-22T23:57:35.154Z,12.30
